Terminal Aerodrome Forecast
Issued by NWS Dodge City, KS

Home | Current Version | Previous Version | Text Only | Print | Product List | Glossary On
Versions: 1 2 3 4 5 6 7 8 9 10 11 12 13 14 15 16 17 18 19 20
000
FTUS43 KDDC 250520
TAFDDC
TAF
KDDC 250520Z 2506/2606 16007KT P6SM OVC070
     FM251500 20010G20KT P6SM OVC070
     FM252100 14009KT P6SM OVC070
     FM260300 10007KT P6SM OVC060=

USA.gov is the U.S. government's official web portal to all federal, state and local government web resources and services.